sensor_id;sensor_type;location;lat;lon;timestamp;temperature;humidity
13322;DHT22;6730;46.248;6.930;2024-03-02T00:00:10;5.40;99.90
13322;DHT22;6730;46.248;6.930;2024-03-02T00:02:42;5.40;99.90
13322;DHT22;6730;46.248;6.930;2024-03-02T00:05:11;5.50;99.90
13322;DHT22;6730;46.248;6.930;2024-03-02T00:07:37;5.60;99.90
13322;DHT22;6730;46.248;6.930;2024-03-02T00:10:08;5.70;99.90
13322;DHT22;6730;46.248;6.930;2024-03-02T00:12:36;5.50;99.90
13322;DHT22;6730;46.248;6.930;2024-03-02T00:17:46;5.20;99.90
13322;DHT22;6730;46.248;6.930;2024-03-02T00:20:16;5.10;99.90
13322;DHT22;6730;46.248;6.930;2024-03-02T00:22:43;5.10;99.90
13322;DHT22;6730;46.248;6.930;2024-03-02T00:25:09;5.10;99.90
13322;DHT22;6730;46.248;6.930;2024-03-02T00:27:36;5.00;99.90
13322;DHT22;6730;46.248;6.930;2024-03-02T00:30:16;4.90;99.90
13322;DHT22;6730;46.248;6.930;2024-03-02T00:32:51;4.80;99.90
13322;DHT22;6730;46.248;6.930;2024-03-02T00:35:19;4.70;99.90
13322;DHT22;6730;46.248;6.930;2024-03-02T00:37:46;4.80;99.90
13322;DHT22;6730;46.248;6.930;2024-03-02T00:40:11;4.70;99.90
13322;DHT22;6730;46.248;6.930;2024-03-02T00:42:38;4.70;99.90
13322;DHT22;6730;46.248;6.930;2024-03-02T00:45:08;4.70;99.90
13322;DHT22;6730;46.248;6.930;2024-03-02T00:47:38;4.80;99.90
13322;DHT22;6730;46.248;6.930;2024-03-02T00:50:05;4.90;99.90
13322;DHT22;6730;46.248;6.930;2024-03-02T00:52:32;4.90;99.90
13322;DHT22;6730;46.248;6.930;2024-03-02T00:54:58;4.80;99.90
13322;DHT22;6730;46.248;6.930;2024-03-02T00:57:24;4.80;99.90
13322;DHT22;6730;46.248;6.930;2024-03-02T00:59:51;4.70;99.90
13322;DHT22;6730;46.248;6.930;2024-03-02T01:02:17;4.70;99.90
13322;DHT22;6730;46.248;6.930;2024-03-02T01:04:45;4.60;99.90
13322;DHT22;6730;46.248;6.930;2024-03-02T01:07:11;4.60;99.90
13322;DHT22;6730;46.248;6.930;2024-03-02T01:09:36;4.70;99.90
13322;DHT22;6730;46.248;6.930;2024-03-02T01:12:02;4.70;99.90
13322;DHT22;6730;46.248;6.930;2024-03-02T01:14:28;4.90;99.90
13322;DHT22;6730;46.248;6.930;2024-03-02T01:16:53;4.80;99.90
13322;DHT22;6730;46.248;6.930;2024-03-02T01:19:19;4.80;99.90
13322;DHT22;6730;46.248;6.930;2024-03-02T01:21:45;4.70;99.90
13322;DHT22;6730;46.248;6.930;2024-03-02T01:24:10;4.60;99.90
13322;DHT22;6730;46.248;6.930;2024-03-02T01:26:36;4.60;99.90
13322;DHT22;6730;46.248;6.930;2024-03-02T01:29:02;4.70;99.90
13322;DHT22;6730;46.248;6.930;2024-03-02T01:31:28;4.90;99.90
13322;DHT22;6730;46.248;6.930;2024-03-02T01:33:53;4.90;99.90
13322;DHT22;6730;46.248;6.930;2024-03-02T01:36:19;4.80;99.90
13322;DHT22;6730;46.248;6.930;2024-03-02T01:38:45;4.80;99.90
13322;DHT22;6730;46.248;6.930;2024-03-02T01:41:10;4.70;99.90
13322;DHT22;6730;46.248;6.930;2024-03-02T01:43:37;4.60;99.90
13322;DHT22;6730;46.248;6.930;2024-03-02T01:46:03;4.60;99.90
13322;DHT22;6730;46.248;6.930;2024-03-02T01:48:28;4.50;99.90
13322;DHT22;6730;46.248;6.930;2024-03-02T01:50:54;4.60;99.90
13322;DHT22;6730;46.248;6.930;2024-03-02T01:53:20;4.60;99.90
13322;DHT22;6730;46.248;6.930;2024-03-02T01:55:46;4.70;99.90
13322;DHT22;6730;46.248;6.930;2024-03-02T01:58:12;4.60;99.90
13322;DHT22;6730;46.248;6.930;2024-03-02T02:00:37;4.70;99.90
13322;DHT22;6730;46.248;6.930;2024-03-02T02:03:03;4.50;99.90
13322;DHT22;6730;46.248;6.930;2024-03-02T02:05:29;4.70;99.90
13322;DHT22;6730;46.248;6.930;2024-03-02T02:07:55;4.90;99.90
13322;DHT22;6730;46.248;6.930;2024-03-02T02:10:21;4.80;99.90
13322;DHT22;6730;46.248;6.930;2024-03-02T02:12:46;4.80;99.90
13322;DHT22;6730;46.248;6.930;2024-03-02T02:15:28;5.10;99.90
13322;DHT22;6730;46.248;6.930;2024-03-02T02:17:58;5.20;99.90
13322;DHT22;6730;46.248;6.930;2024-03-02T02:20:24;5.20;99.90
13322;DHT22;6730;46.248;6.930;2024-03-02T02:23:03;5.20;99.90
13322;DHT22;6730;46.248;6.930;2024-03-02T02:25:30;5.00;99.90
13322;DHT22;6730;46.248;6.930;2024-03-02T02:27:56;4.80;99.90
13322;DHT22;6730;46.248;6.930;2024-03-02T02:30:25;4.70;99.90
13322;DHT22;6730;46.248;6.930;2024-03-02T02:32:51;4.60;99.90
13322;DHT22;6730;46.248;6.930;2024-03-02T02:35:17;4.50;99.90
13322;DHT22;6730;46.248;6.930;2024-03-02T02:37:44;4.50;99.90
13322;DHT22;6730;46.248;6.930;2024-03-02T02:40:11;4.50;99.90
13322;DHT22;6730;46.248;6.930;2024-03-02T02:42:37;4.50;99.90
13322;DHT22;6730;46.248;6.930;2024-03-02T02:45:04;4.50;99.90
13322;DHT22;6730;46.248;6.930;2024-03-02T02:47:30;4.50;99.90
13322;DHT22;6730;46.248;6.930;2024-03-02T02:49:55;4.40;99.90
13322;DHT22;6730;46.248;6.930;2024-03-02T02:52:21;4.30;99.90
13322;DHT22;6730;46.248;6.930;2024-03-02T02:54:47;4.20;99.90
13322;DHT22;6730;46.248;6.930;2024-03-02T02:57:13;4.30;99.90
13322;DHT22;6730;46.248;6.930;2024-03-02T02:59:38;4.30;99.90
13322;DHT22;6730;46.248;6.930;2024-03-02T03:02:04;4.60;99.90
13322;DHT22;6730;46.248;6.930;2024-03-02T03:04:30;4.60;99.90
13322;DHT22;6730;46.248;6.930;2024-03-02T03:06:56;4.50;99.90
13322;DHT22;6730;46.248;6.930;2024-03-02T03:09:21;4.40;99.90
13322;DHT22;6730;46.248;6.930;2024-03-02T03:11:47;4.40;99.90
13322;DHT22;6730;46.248;6.930;2024-03-02T03:14:13;4.40;99.90
13322;DHT22;6730;46.248;6.930;2024-03-02T03:16:38;4.40;99.90
13322;DHT22;6730;46.248;6.930;2024-03-02T03:19:04;4.60;99.90
13322;DHT22;6730;46.248;6.930;2024-03-02T03:21:29;4.50;99.90
13322;DHT22;6730;46.248;6.930;2024-03-02T03:23:55;4.40;99.90
13322;DHT22;6730;46.248;6.930;2024-03-02T03:26:21;4.30;99.90
13322;DHT22;6730;46.248;6.930;2024-03-02T03:28:46;4.20;99.90
13322;DHT22;6730;46.248;6.930;2024-03-02T03:31:12;4.20;99.90
13322;DHT22;6730;46.248;6.930;2024-03-02T03:33:37;4.20;99.90
13322;DHT22;6730;46.248;6.930;2024-03-02T03:36:03;4.10;99.90
13322;DHT22;6730;46.248;6.930;2024-03-02T03:38:29;4.10;99.90
13322;DHT22;6730;46.248;6.930;2024-03-02T03:40:55;4.10;99.90
13322;DHT22;6730;46.248;6.930;2024-03-02T03:43:21;4.10;99.90
13322;DHT22;6730;46.248;6.930;2024-03-02T03:45:47;4.20;99.90
13322;DHT22;6730;46.248;6.930;2024-03-02T03:48:12;4.20;99.90
13322;DHT22;6730;46.248;6.930;2024-03-02T03:50:38;4.10;99.90
13322;DHT22;6730;46.248;6.930;2024-03-02T03:53:04;4.10;99.90
13322;DHT22;6730;46.248;6.930;2024-03-02T03:55:29;4.10;99.90
13322;DHT22;6730;46.248;6.930;2024-03-02T03:57:55;4.20;99.90
13322;DHT22;6730;46.248;6.930;2024-03-02T04:00:20;4.20;99.90
13322;DHT22;6730;46.248;6.930;2024-03-02T04:02:46;4.30;99.90
13322;DHT22;6730;46.248;6.930;2024-03-02T04:05:12;4.20;99.90
13322;DHT22;6730;46.248;6.930;2024-03-02T04:07:37;4.20;99.90
13322;DHT22;6730;46.248;6.930;2024-03-02T04:10:07;4.20;99.90
13322;DHT22;6730;46.248;6.930;2024-03-02T04:12:34;4.20;99.90
13322;DHT22;6730;46.248;6.930;2024-03-02T04:15:01;4.10;99.90
13322;DHT22;6730;46.248;6.930;2024-03-02T04:17:27;4.00;99.90
13322;DHT22;6730;46.248;6.930;2024-03-02T04:19:52;3.90;99.90
13322;DHT22;6730;46.248;6.930;2024-03-02T04:22:18;4.20;99.90
13322;DHT22;6730;46.248;6.930;2024-03-02T04:24:44;4.30;99.90
13322;DHT22;6730;46.248;6.930;2024-03-02T04:27:09;4.40;99.90
13322;DHT22;6730;46.248;6.930;2024-03-02T04:29:35;4.20;99.90
13322;DHT22;6730;46.248;6.930;2024-03-02T04:32:03;4.30;99.90
13322;DHT22;6730;46.248;6.930;2024-03-02T04:34:29;4.50;99.90
13322;DHT22;6730;46.248;6.930;2024-03-02T04:36:55;4.80;99.90
13322;DHT22;6730;46.248;6.930;2024-03-02T04:39:21;4.60;99.90
13322;DHT22;6730;46.248;6.930;2024-03-02T04:41:47;4.60;99.90
13322;DHT22;6730;46.248;6.930;2024-03-02T04:44:13;4.60;99.90
13322;DHT22;6730;46.248;6.930;2024-03-02T04:46:38;4.50;99.90
13322;DHT22;6730;46.248;6.930;2024-03-02T04:49:04;4.50;99.90
13322;DHT22;6730;46.248;6.930;2024-03-02T04:51:30;4.40;99.90
13322;DHT22;6730;46.248;6.930;2024-03-02T04:53:55;4.30;99.90
13322;DHT22;6730;46.248;6.930;2024-03-02T04:56:21;4.20;99.90
13322;DHT22;6730;46.248;6.930;2024-03-02T04:59:06;4.10;99.90
13322;DHT22;6730;46.248;6.930;2024-03-02T05:01:32;4.10;99.90
13322;DHT22;6730;46.248;6.930;2024-03-02T05:03:58;4.10;99.90
13322;DHT22;6730;46.248;6.930;2024-03-02T05:06:24;4.20;99.90
13322;DHT22;6730;46.248;6.930;2024-03-02T05:08:52;4.20;99.90
13322;DHT22;6730;46.248;6.930;2024-03-02T05:11:18;4.20;99.90
13322;DHT22;6730;46.248;6.930;2024-03-02T05:14:10;4.20;99.90
13322;DHT22;6730;46.248;6.930;2024-03-02T05:16:36;4.10;99.90
13322;DHT22;6730;46.248;6.930;2024-03-02T05:19:05;4.10;99.90
13322;DHT22;6730;46.248;6.930;2024-03-02T05:21:34;4.10;99.90
13322;DHT22;6730;46.248;6.930;2024-03-02T05:24:00;4.00;99.90
13322;DHT22;6730;46.248;6.930;2024-03-02T05:26:26;4.00;99.90
13322;DHT22;6730;46.248;6.930;2024-03-02T05:28:52;4.10;99.90
13322;DHT22;6730;46.248;6.930;2024-03-02T05:31:18;4.10;99.90
13322;DHT22;6730;46.248;6.930;2024-03-02T05:33:44;4.30;99.90
13322;DHT22;6730;46.248;6.930;2024-03-02T05:36:10;4.20;99.90
13322;DHT22;6730;46.248;6.930;2024-03-02T05:38:36;4.50;99.90
13322;DHT22;6730;46.248;6.930;2024-03-02T05:41:01;4.50;99.90
13322;DHT22;6730;46.248;6.930;2024-03-02T05:43:27;4.50;99.90
13322;DHT22;6730;46.248;6.930;2024-03-02T05:45:53;4.70;99.90
13322;DHT22;6730;46.248;6.930;2024-03-02T05:48:19;4.60;99.90
13322;DHT22;6730;46.248;6.930;2024-03-02T05:50:44;4.40;99.90
13322;DHT22;6730;46.248;6.930;2024-03-02T05:53:10;4.20;99.90
13322;DHT22;6730;46.248;6.930;2024-03-02T05:55:36;4.20;99.90
13322;DHT22;6730;46.248;6.930;2024-03-02T05:58:01;4.30;99.90
13322;DHT22;6730;46.248;6.930;2024-03-02T06:00:45;4.40;99.90
13322;DHT22;6730;46.248;6.930;2024-03-02T06:03:11;4.30;99.90
13322;DHT22;6730;46.248;6.930;2024-03-02T06:05:37;4.20;99.90
13322;DHT22;6730;46.248;6.930;2024-03-02T06:08:03;4.10;99.90
13322;DHT22;6730;46.248;6.930;2024-03-02T06:10:29;4.10;99.90
13322;DHT22;6730;46.248;6.930;2024-03-02T06:12:54;4.20;99.90
13322;DHT22;6730;46.248;6.930;2024-03-02T06:15:20;4.30;99.90
13322;DHT22;6730;46.248;6.930;2024-03-02T06:17:46;4.40;99.90
13322;DHT22;6730;46.248;6.930;2024-03-02T06:20:11;4.40;99.90
13322;DHT22;6730;46.248;6.930;2024-03-02T06:22:37;4.50;99.90
13322;DHT22;6730;46.248;6.930;2024-03-02T06:25:03;4.50;99.90
13322;DHT22;6730;46.248;6.930;2024-03-02T06:27:28;4.80;99.90
13322;DHT22;6730;46.248;6.930;2024-03-02T06:29:54;4.80;99.90
13322;DHT22;6730;46.248;6.930;2024-03-02T06:32:20;5.00;99.90
13322;DHT22;6730;46.248;6.930;2024-03-02T06:34:45;5.10;99.90
13322;DHT22;6730;46.248;6.930;2024-03-02T06:37:11;4.90;99.90
13322;DHT22;6730;46.248;6.930;2024-03-02T06:39:38;4.70;99.90
13322;DHT22;6730;46.248;6.930;2024-03-02T06:42:04;4.60;99.90
13322;DHT22;6730;46.248;6.930;2024-03-02T06:44:30;4.60;99.90
13322;DHT22;6730;46.248;6.930;2024-03-02T06:46:55;4.60;99.90
13322;DHT22;6730;46.248;6.930;2024-03-02T06:49:21;4.50;99.90
13322;DHT22;6730;46.248;6.930;2024-03-02T06:51:46;4.50;99.90
13322;DHT22;6730;46.248;6.930;2024-03-02T06:54:12;4.50;99.90
13322;DHT22;6730;46.248;6.930;2024-03-02T06:56:38;4.50;99.90
13322;DHT22;6730;46.248;6.930;2024-03-02T06:59:04;4.70;99.90
13322;DHT22;6730;46.248;6.930;2024-03-02T07:01:30;4.90;99.90
13322;DHT22;6730;46.248;6.930;2024-03-02T07:03:56;5.00;99.90
13322;DHT22;6730;46.248;6.930;2024-03-02T07:06:21;4.90;99.90
13322;DHT22;6730;46.248;6.930;2024-03-02T07:08:47;5.00;99.90
13322;DHT22;6730;46.248;6.930;2024-03-02T07:11:13;5.30;99.90
13322;DHT22;6730;46.248;6.930;2024-03-02T07:13:38;5.80;99.90
13322;DHT22;6730;46.248;6.930;2024-03-02T07:16:04;6.30;99.90
13322;DHT22;6730;46.248;6.930;2024-03-02T07:18:48;6.70;99.90
13322;DHT22;6730;46.248;6.930;2024-03-02T07:21:17;6.60;99.90
13322;DHT22;6730;46.248;6.930;2024-03-02T07:23:43;6.50;99.90
13322;DHT22;6730;46.248;6.930;2024-03-02T07:26:08;6.80;99.90
13322;DHT22;6730;46.248;6.930;2024-03-02T07:28:34;7.40;99.90
13322;DHT22;6730;46.248;6.930;2024-03-02T07:31:01;7.80;99.90
13322;DHT22;6730;46.248;6.930;2024-03-02T07:33:27;8.20;99.90
13322;DHT22;6730;46.248;6.930;2024-03-02T07:35:54;8.30;99.90
13322;DHT22;6730;46.248;6.930;2024-03-02T07:38:20;8.70;99.90
13322;DHT22;6730;46.248;6.930;2024-03-02T07:40:45;9.30;99.90
13322;DHT22;6730;46.248;6.930;2024-03-02T07:43:11;9.50;99.90
13322;DHT22;6730;46.248;6.930;2024-03-02T07:45:37;9.70;99.90
13322;DHT22;6730;46.248;6.930;2024-03-02T07:48:03;10.40;99.90
13322;DHT22;6730;46.248;6.930;2024-03-02T07:50:31;11.20;99.90
13322;DHT22;6730;46.248;6.930;2024-03-02T07:53:00;11.70;99.90
13322;DHT22;6730;46.248;6.930;2024-03-02T07:55:26;12.00;99.90
13322;DHT22;6730;46.248;6.930;2024-03-02T07:57:51;12.20;99.90
13322;DHT22;6730;46.248;6.930;2024-03-02T08:00:17;11.70;99.90
13322;DHT22;6730;46.248;6.930;2024-03-02T08:02:43;12.20;99.90
13322;DHT22;6730;46.248;6.930;2024-03-02T08:05:09;12.60;99.90
13322;DHT22;6730;46.248;6.930;2024-03-02T08:07:35;12.90;99.90
13322;DHT22;6730;46.248;6.930;2024-03-02T08:10:00;12.50;99.90
13322;DHT22;6730;46.248;6.930;2024-03-02T08:12:26;12.80;99.90
13322;DHT22;6730;46.248;6.930;2024-03-02T08:14:52;13.70;99.90
13322;DHT22;6730;46.248;6.930;2024-03-02T08:17:17;13.80;99.90
13322;DHT22;6730;46.248;6.930;2024-03-02T08:19:44;13.70;99.90
13322;DHT22;6730;46.248;6.930;2024-03-02T08:22:10;12.80;99.90
13322;DHT22;6730;46.248;6.930;2024-03-02T08:24:36;13.10;99.90
13322;DHT22;6730;46.248;6.930;2024-03-02T08:27:01;14.00;99.90
13322;DHT22;6730;46.248;6.930;2024-03-02T08:29:27;13.50;99.90
13322;DHT22;6730;46.248;6.930;2024-03-02T08:31:53;13.00;99.90
13322;DHT22;6730;46.248;6.930;2024-03-02T08:34:19;12.80;99.90
13322;DHT22;6730;46.248;6.930;2024-03-02T08:36:46;13.00;99.90
13322;DHT22;6730;46.248;6.930;2024-03-02T08:39:12;13.50;99.90
13322;DHT22;6730;46.248;6.930;2024-03-02T08:41:42;14.40;99.90
13322;DHT22;6730;46.248;6.930;2024-03-02T08:44:08;14.10;99.90
13322;DHT22;6730;46.248;6.930;2024-03-02T08:46:34;14.10;99.90
13322;DHT22;6730;46.248;6.930;2024-03-02T08:49:00;14.70;99.90
13322;DHT22;6730;46.248;6.930;2024-03-02T08:51:26;14.50;99.90
13322;DHT22;6730;46.248;6.930;2024-03-02T08:53:51;14.40;99.90
13322;DHT22;6730;46.248;6.930;2024-03-02T08:56:17;13.70;99.90
13322;DHT22;6730;46.248;6.930;2024-03-02T08:58:43;14.60;99.90
13322;DHT22;6730;46.248;6.930;2024-03-02T09:01:10;14.80;99.90
13322;DHT22;6730;46.248;6.930;2024-03-02T09:03:36;15.00;99.90
13322;DHT22;6730;46.248;6.930;2024-03-02T09:06:03;15.60;99.90
13322;DHT22;6730;46.248;6.930;2024-03-02T09:08:28;16.30;99.90
13322;DHT22;6730;46.248;6.930;2024-03-02T09:10:55;15.90;99.00
13322;DHT22;6730;46.248;6.930;2024-03-02T09:13:21;14.70;99.90
13322;DHT22;6730;46.248;6.930;2024-03-02T09:15:51;13.70;99.90
13322;DHT22;6730;46.248;6.930;2024-03-02T09:18:17;14.10;99.90
13322;DHT22;6730;46.248;6.930;2024-03-02T09:20:42;14.40;99.90
13322;DHT22;6730;46.248;6.930;2024-03-02T09:23:08;14.30;99.90
13322;DHT22;6730;46.248;6.930;2024-03-02T09:25:34;14.50;99.90
13322;DHT22;6730;46.248;6.930;2024-03-02T09:27:59;14.80;99.90
13322;DHT22;6730;46.248;6.930;2024-03-02T09:30:25;15.40;99.90
13322;DHT22;6730;46.248;6.930;2024-03-02T09:32:50;15.40;99.90
13322;DHT22;6730;46.248;6.930;2024-03-02T09:35:16;15.30;99.90
13322;DHT22;6730;46.248;6.930;2024-03-02T09:37:42;15.70;99.90
13322;DHT22;6730;46.248;6.930;2024-03-02T09:40:08;15.60;99.90
13322;DHT22;6730;46.248;6.930;2024-03-02T09:42:34;15.90;99.90
13322;DHT22;6730;46.248;6.930;2024-03-02T09:45:00;16.50;99.90
13322;DHT22;6730;46.248;6.930;2024-03-02T09:47:26;16.50;99.90
13322;DHT22;6730;46.248;6.930;2024-03-02T09:49:51;16.60;99.90
13322;DHT22;6730;46.248;6.930;2024-03-02T09:52:17;16.10;99.90
13322;DHT22;6730;46.248;6.930;2024-03-02T09:54:43;16.50;99.90
13322;DHT22;6730;46.248;6.930;2024-03-02T09:57:09;16.10;99.90
13322;DHT22;6730;46.248;6.930;2024-03-02T09:59:38;15.70;99.90
13322;DHT22;6730;46.248;6.930;2024-03-02T10:02:04;14.80;99.90
13322;DHT22;6730;46.248;6.930;2024-03-02T10:04:32;13.70;99.90
13322;DHT22;6730;46.248;6.930;2024-03-02T10:07:15;14.40;99.90
13322;DHT22;6730;46.248;6.930;2024-03-02T10:09:42;14.60;99.90
13322;DHT22;6730;46.248;6.930;2024-03-02T10:12:09;13.60;99.90
13322;DHT22;6730;46.248;6.930;2024-03-02T10:14:35;13.30;99.90
13322;DHT22;6730;46.248;6.930;2024-03-02T10:17:05;12.90;99.90
13322;DHT22;6730;46.248;6.930;2024-03-02T10:19:31;13.10;99.90
13322;DHT22;6730;46.248;6.930;2024-03-02T10:22:04;12.90;99.90
13322;DHT22;6730;46.248;6.930;2024-03-02T10:24:39;13.10;99.90
13322;DHT22;6730;46.248;6.930;2024-03-02T10:27:10;13.20;99.90
13322;DHT22;6730;46.248;6.930;2024-03-02T10:29:39;12.80;99.90
13322;DHT22;6730;46.248;6.930;2024-03-02T10:32:09;13.20;99.90
13322;DHT22;6730;46.248;6.930;2024-03-02T10:34:35;12.90;99.90
13322;DHT22;6730;46.248;6.930;2024-03-02T10:37:01;13.00;99.90
13322;DHT22;6730;46.248;6.930;2024-03-02T10:39:28;12.90;99.90
13322;DHT22;6730;46.248;6.930;2024-03-02T10:41:55;12.40;99.90
13322;DHT22;6730;46.248;6.930;2024-03-02T10:44:22;12.70;99.90
13322;DHT22;6730;46.248;6.930;2024-03-02T10:46:49;12.90;99.90
13322;DHT22;6730;46.248;6.930;2024-03-02T10:49:19;12.50;99.90
13322;DHT22;6730;46.248;6.930;2024-03-02T10:51:46;12.90;99.90
13322;DHT22;6730;46.248;6.930;2024-03-02T10:54:12;13.80;99.90
13322;DHT22;6730;46.248;6.930;2024-03-02T10:56:41;14.10;99.90
13322;DHT22;6730;46.248;6.930;2024-03-02T11:01:57;13.30;99.90
13322;DHT22;6730;46.248;6.930;2024-03-02T11:04:26;13.00;99.90
13322;DHT22;6730;46.248;6.930;2024-03-02T11:07:04;12.00;99.90
13322;DHT22;6730;46.248;6.930;2024-03-02T11:09:33;12.40;99.90
13322;DHT22;6730;46.248;6.930;2024-03-02T11:12:19;12.80;99.90
13322;DHT22;6730;46.248;6.930;2024-03-02T11:14:45;13.00;99.90
13322;DHT22;6730;46.248;6.930;2024-03-02T11:17:14;13.00;99.90
13322;DHT22;6730;46.248;6.930;2024-03-02T11:19:41;12.50;99.90
13322;DHT22;6730;46.248;6.930;2024-03-02T11:22:09;12.40;99.90
13322;DHT22;6730;46.248;6.930;2024-03-02T11:24:35;12.40;99.90
13322;DHT22;6730;46.248;6.930;2024-03-02T11:27:05;12.40;99.90
13322;DHT22;6730;46.248;6.930;2024-03-02T11:32:20;12.10;99.90
13322;DHT22;6730;46.248;6.930;2024-03-02T11:34:48;11.80;99.90
13322;DHT22;6730;46.248;6.930;2024-03-02T11:37:18;11.50;99.90
13322;DHT22;6730;46.248;6.930;2024-03-02T11:39:45;11.30;99.90
13322;DHT22;6730;46.248;6.930;2024-03-02T11:42:16;11.60;99.90
13322;DHT22;6730;46.248;6.930;2024-03-02T11:44:45;11.50;99.90
13322;DHT22;6730;46.248;6.930;2024-03-02T11:47:12;11.20;99.90
13322;DHT22;6730;46.248;6.930;2024-03-02T11:49:43;11.00;99.90
13322;DHT22;6730;46.248;6.930;2024-03-02T11:52:11;11.10;99.90
13322;DHT22;6730;46.248;6.930;2024-03-02T11:54:38;11.50;99.90
13322;DHT22;6730;46.248;6.930;2024-03-02T11:57:12;11.90;99.90
13322;DHT22;6730;46.248;6.930;2024-03-02T11:59:39;11.90;99.90
13322;DHT22;6730;46.248;6.930;2024-03-02T12:02:06;11.30;99.90
13322;DHT22;6730;46.248;6.930;2024-03-02T12:04:31;11.10;99.90
13322;DHT22;6730;46.248;6.930;2024-03-02T12:06:59;11.50;99.90
13322;DHT22;6730;46.248;6.930;2024-03-02T12:09:28;11.60;99.90
13322;DHT22;6730;46.248;6.930;2024-03-02T12:12:08;11.80;99.90
13322;DHT22;6730;46.248;6.930;2024-03-02T12:14:36;12.20;99.90
13322;DHT22;6730;46.248;6.930;2024-03-02T12:17:03;12.20;99.90
13322;DHT22;6730;46.248;6.930;2024-03-02T12:19:29;11.90;99.90
13322;DHT22;6730;46.248;6.930;2024-03-02T12:21:59;12.20;99.90
13322;DHT22;6730;46.248;6.930;2024-03-02T12:24:27;12.30;99.90
13322;DHT22;6730;46.248;6.930;2024-03-02T12:26:54;11.90;99.90
13322;DHT22;6730;46.248;6.930;2024-03-02T12:29:21;12.10;99.90
13322;DHT22;6730;46.248;6.930;2024-03-02T12:31:51;12.10;99.90
13322;DHT22;6730;46.248;6.930;2024-03-02T12:34:18;11.80;99.90
13322;DHT22;6730;46.248;6.930;2024-03-02T12:36:45;12.30;99.90
13322;DHT22;6730;46.248;6.930;2024-03-02T12:39:13;12.30;99.90
13322;DHT22;6730;46.248;6.930;2024-03-02T12:41:40;12.40;99.90
13322;DHT22;6730;46.248;6.930;2024-03-02T12:44:06;12.30;99.90
13322;DHT22;6730;46.248;6.930;2024-03-02T12:46:32;11.80;99.90
13322;DHT22;6730;46.248;6.930;2024-03-02T12:49:11;11.50;99.90
13322;DHT22;6730;46.248;6.930;2024-03-02T12:51:38;11.70;99.90
13322;DHT22;6730;46.248;6.930;2024-03-02T12:54:14;12.10;99.90
13322;DHT22;6730;46.248;6.930;2024-03-02T12:56:41;12.40;99.90
13322;DHT22;6730;46.248;6.930;2024-03-02T12:59:23;12.50;99.90
13322;DHT22;6730;46.248;6.930;2024-03-02T13:01:55;12.60;99.90
13322;DHT22;6730;46.248;6.930;2024-03-02T13:06:50;11.90;99.90
13322;DHT22;6730;46.248;6.930;2024-03-02T13:09:16;11.70;99.90
13322;DHT22;6730;46.248;6.930;2024-03-02T13:11:43;12.00;99.90
13322;DHT22;6730;46.248;6.930;2024-03-02T13:14:10;12.20;99.90
13322;DHT22;6730;46.248;6.930;2024-03-02T13:16:40;12.30;99.90
13322;DHT22;6730;46.248;6.930;2024-03-02T13:19:09;12.20;99.90
13322;DHT22;6730;46.248;6.930;2024-03-02T13:21:35;11.50;99.90
13322;DHT22;6730;46.248;6.930;2024-03-02T13:24:01;11.50;99.90
13322;DHT22;6730;46.248;6.930;2024-03-02T13:26:27;11.70;99.90
13322;DHT22;6730;46.248;6.930;2024-03-02T13:28:53;11.40;99.90
13322;DHT22;6730;46.248;6.930;2024-03-02T13:31:18;11.20;99.90
13322;DHT22;6730;46.248;6.930;2024-03-02T13:33:44;11.30;99.90
13322;DHT22;6730;46.248;6.930;2024-03-02T13:36:10;11.30;99.90
13322;DHT22;6730;46.248;6.930;2024-03-02T13:38:35;11.20;99.90
13322;DHT22;6730;46.248;6.930;2024-03-02T13:41:01;11.10;99.90
13322;DHT22;6730;46.248;6.930;2024-03-02T13:43:27;11.10;99.90
13322;DHT22;6730;46.248;6.930;2024-03-02T13:45:53;11.20;99.90
13322;DHT22;6730;46.248;6.930;2024-03-02T13:48:19;11.60;99.90
13322;DHT22;6730;46.248;6.930;2024-03-02T13:50:45;12.00;99.90
13322;DHT22;6730;46.248;6.930;2024-03-02T13:53:11;11.50;99.90
13322;DHT22;6730;46.248;6.930;2024-03-02T13:55:37;11.70;99.90
13322;DHT22;6730;46.248;6.930;2024-03-02T13:58:03;11.90;99.90
13322;DHT22;6730;46.248;6.930;2024-03-02T14:00:29;11.50;99.90
13322;DHT22;6730;46.248;6.930;2024-03-02T14:02:55;11.60;99.90
13322;DHT22;6730;46.248;6.930;2024-03-02T14:05:21;11.70;99.90
13322;DHT22;6730;46.248;6.930;2024-03-02T14:07:47;12.10;99.90
13322;DHT22;6730;46.248;6.930;2024-03-02T14:10:12;12.30;99.90
13322;DHT22;6730;46.248;6.930;2024-03-02T14:12:40;11.70;99.90
13322;DHT22;6730;46.248;6.930;2024-03-02T14:15:06;11.40;99.90
13322;DHT22;6730;46.248;6.930;2024-03-02T14:17:32;11.30;99.90
13322;DHT22;6730;46.248;6.930;2024-03-02T14:19:58;11.50;99.90
13322;DHT22;6730;46.248;6.930;2024-03-02T14:22:26;12.00;99.90
13322;DHT22;6730;46.248;6.930;2024-03-02T14:24:53;12.10;99.90
13322;DHT22;6730;46.248;6.930;2024-03-02T14:27:18;12.40;99.90
13322;DHT22;6730;46.248;6.930;2024-03-02T14:29:44;11.90;99.90
13322;DHT22;6730;46.248;6.930;2024-03-02T14:32:10;11.50;99.90
13322;DHT22;6730;46.248;6.930;2024-03-02T14:34:35;11.90;99.90
13322;DHT22;6730;46.248;6.930;2024-03-02T14:37:01;12.00;99.90
13322;DHT22;6730;46.248;6.930;2024-03-02T14:39:28;11.50;99.90
13322;DHT22;6730;46.248;6.930;2024-03-02T14:41:55;11.00;99.90
13322;DHT22;6730;46.248;6.930;2024-03-02T14:44:21;10.80;99.90
13322;DHT22;6730;46.248;6.930;2024-03-02T14:46:51;10.60;99.90
13322;DHT22;6730;46.248;6.930;2024-03-02T14:49:17;10.60;99.90
13322;DHT22;6730;46.248;6.930;2024-03-02T14:51:44;10.70;99.90
13322;DHT22;6730;46.248;6.930;2024-03-02T14:54:09;10.50;99.90
13322;DHT22;6730;46.248;6.930;2024-03-02T14:56:35;10.60;99.90
13322;DHT22;6730;46.248;6.930;2024-03-02T14:59:01;10.60;99.90
13322;DHT22;6730;46.248;6.930;2024-03-02T15:01:26;10.50;99.90
13322;DHT22;6730;46.248;6.930;2024-03-02T15:03:55;10.50;99.90
13322;DHT22;6730;46.248;6.930;2024-03-02T15:06:20;10.30;99.90
13322;DHT22;6730;46.248;6.930;2024-03-02T15:08:46;9.90;99.90
13322;DHT22;6730;46.248;6.930;2024-03-02T15:11:12;9.80;99.90
13322;DHT22;6730;46.248;6.930;2024-03-02T15:13:38;9.40;99.90
13322;DHT22;6730;46.248;6.930;2024-03-02T15:16:04;9.20;99.90
13322;DHT22;6730;46.248;6.930;2024-03-02T15:18:30;9.20;99.90
13322;DHT22;6730;46.248;6.930;2024-03-02T15:20:56;9.40;99.90
13322;DHT22;6730;46.248;6.930;2024-03-02T15:23:22;9.90;99.90
13322;DHT22;6730;46.248;6.930;2024-03-02T15:25:48;9.90;99.90
13322;DHT22;6730;46.248;6.930;2024-03-02T15:28:16;9.90;99.90
13322;DHT22;6730;46.248;6.930;2024-03-02T15:30:42;9.80;99.90
13322;DHT22;6730;46.248;6.930;2024-03-02T15:33:08;9.60;99.90
13322;DHT22;6730;46.248;6.930;2024-03-02T15:35:33;9.30;99.90
13322;DHT22;6730;46.248;6.930;2024-03-02T15:37:59;9.40;99.90
13322;DHT22;6730;46.248;6.930;2024-03-02T15:40:25;9.60;99.90
13322;DHT22;6730;46.248;6.930;2024-03-02T15:42:50;9.70;99.90
13322;DHT22;6730;46.248;6.930;2024-03-02T15:45:16;9.60;99.90
13322;DHT22;6730;46.248;6.930;2024-03-02T15:47:42;9.10;99.90
13322;DHT22;6730;46.248;6.930;2024-03-02T15:50:08;9.10;99.90
13322;DHT22;6730;46.248;6.930;2024-03-02T15:52:34;9.30;99.90
13322;DHT22;6730;46.248;6.930;2024-03-02T15:54:59;9.40;99.90
13322;DHT22;6730;46.248;6.930;2024-03-02T15:57:25;9.90;99.90
13322;DHT22;6730;46.248;6.930;2024-03-02T15:59:51;9.60;99.90
13322;DHT22;6730;46.248;6.930;2024-03-02T16:02:17;9.20;99.90